Latest Weather Observations for Curtin

IDW60801

Issued at 4:05 pm WST Thursday 2 October 2014 (issued every 30 minutes, with the page automatically refreshed every 10 minutes)

About weather observations | Map of weather stations | Latest weather observations for WA | Other Formats
Station Details ID: 003080 Name: CURTIN AERO Lat: -17.58 Lon: 123.83 Height: 77.5 m
Data from the previous 72 hours. | See also: Recent months at Curtin
Date/Time
WST
Temp
°C
App
Temp
°C
Dew
Point
Rel
Hum
%
Delta-T
°C
Wind Press
QNH
hPa
Press
MSL
hPa
Rain
since 9 am
mm
Dir
 
Spd
km/h
Gust
km/h
Spd
kts
Gust
kts
02/04:00pm 37.7 36.6 13.0 23 15.2 W 11 19 6 10 1008.1 1007.5 0.0
02/03:30pm 38.0 36.8 9.6 18 16.6 NNW 6 11 3 6 1008.1 1007.5 0.0
02/03:00pm 38.3 36.2 9.8 18 16.7 S 11 17 6 9 1008.0 1007.4 0.0
02/02:30pm 38.0 36.1 10.4 19 16.3 W 11 17 6 9 1008.2 1007.6 0.0
02/02:00pm 38.2 36.8 9.7 18 16.7 WSW 7 15 4 8 1008.4 1007.8 0.0
02/01:30pm 37.7 35.5 9.3 18 16.5 WNW 11 19 6 10 1008.8 1008.3 0.0
02/01:00pm 36.9 33.9 7.8 17 16.5 NW 13 24 7 13 1009.1 1008.6 0.0
02/12:30pm 36.9 34.1 8.7 18 16.2 WNW 13 22 7 12 1009.7 1009.2 0.0
02/12:00pm 35.7 33.9 10.7 22 14.7 WNW 11 20 6 11 1010.4 1009.9 0.0
02/11:30am 36.3 35.6 13.1 25 14.2 NNE 9 19 5 10 1011.0 1010.5 0.0
02/11:00am 34.2 33.5 13.1 28 12.8 SW 9 13 5 7 1011.4 1010.9 0.0
02/10:30am 33.1 32.5 14.7 33 11.4 W 11 17 6 9 1011.7 1011.2 0.0
02/10:00am 32.0 32.1 15.5 37 10.3 N 9 15 5 8 1012.2 1011.7 0.0
02/09:30am 31.2 32.4 18.2 46 8.4 SW 9 11 5 6 1012.6 1012.1 0.0
02/09:00am 29.9 32.0 19.0 52 7.1 S 6 11 3 6 1013.0 1012.5 0.0
02/08:30am 28.7 30.4 20.2 60 5.6 WNW 11 15 6 8 1013.0 1012.5 0.0
02/08:00am 27.2 29.7 21.7 72 3.7 WNW 11 15 6 8 1013.0 1012.5 0.0
02/07:30am 26.1 29.4 23.2 84 2.0 NW 11 15 6 8 1013.0 1012.5 0.0
02/07:00am 25.0 29.1 24.0 94 0.7 N 9 13 5 7 1013.1 1012.6 0.0
02/06:30am 23.9 28.4 23.7 99 0.1 NNE 6 7 3 4 1012.6 1012.1 0.0
02/06:00am 23.0 26.8 22.8 99 0.1 N 7 9 4 5 1012.1 1011.6 0.0
02/05:31am 22.8 26.7 22.6 99 0.1 N 6 9 3 5 1011.9 1011.4 0.0
02/05:30am 22.9 26.9 22.7 99 0.1 N 6 9 3 5 1011.9 1011.4 0.0
02/05:00am 23.1 26.9 22.8 98 0.2 N 7 9 4 5 1011.7 1011.2 0.0
02/04:30am 23.3 27.1 22.8 97 0.3 NNW 7 9 4 5 1011.4 1010.9 0.0
02/04:23am 23.6 27.8 23.1 97 0.3 NW 6 7 3 4 1011.4 1010.9 0.0
02/04:00am 23.8 27.8 23.1 96 0.5 NW 7 9 4 5 1011.3 1010.8 0.0
02/03:31am 24.1 27.8 23.2 95 0.6 N 9 13 5 7 1011.1 1010.6 0.0
02/03:30am 24.1 27.8 23.2 95 0.6 N 9 13 5 7 1011.1 1010.6 0.0
02/03:00am 23.9 27.6 23.2 96 0.5 N 9 11 5 6 1010.9 1010.4 0.0
02/02:41am 23.8 27.8 23.1 96 0.5 N 7 9 4 5 1010.8 1010.3 0.0
02/02:36am 23.8 27.8 23.1 96 0.5 N 7 11 4 6 1010.6 1010.1 0.0
02/02:30am 23.8 27.4 23.1 96 0.5 N 9 11 5 6 1010.6 1010.1 0.0
02/02:00am 23.7 27.6 22.9 95 0.5 N 7 9 4 5 1010.7 1010.2 0.0
02/01:58am 23.7 27.6 22.9 95 0.5 N 7 9 4 5 1010.7 1010.2 0.0
02/01:30am 23.6 26.9 22.6 94 0.7 N 9 13 5 7 1010.6 1010.1 0.0
02/01:00am 23.9 26.8 22.5 92 0.9 N 11 13 6 7 1010.6 1010.1 0.0
02/12:30am 24.2 27.5 22.6 91 1.1 N 9 13 5 7 1010.8 1010.3 0.0
02/12:00am 24.4 27.0 22.7 90 1.1 N 13 17 7 9 1010.9 1010.4 0.0
 
Date/Time
WST
Temp
°C
App
Temp
°C
Dew
Point
Rel
Hum
%
Delta-T
°C
Wind Press
QNH
hPa
Press
MSL
hPa
Rain
since 9 am
mm
Dir
 
Spd
km/h
Gust
km/h
Spd
kts
Gust
kts
01/11:30pm 24.6 27.1 22.5 88 1.4 NNW 13 22 7 12 1010.9 1010.4 0.0
01/11:00pm 24.8 27.4 22.7 88 1.4 NNW 13 17 7 9 1011.3 1010.8 0.0
01/10:30pm 24.7 27.4 22.8 89 1.3 N 13 20 7 11 1011.5 1011.0 0.0
01/10:00pm 24.9 27.7 23.0 89 1.3 N 13 17 7 9 1011.7 1011.2 0.0
01/09:30pm 25.1 27.8 22.8 87 1.6 NNW 13 20 7 11 1011.6 1011.1 0.0
01/09:00pm 25.4 28.0 22.7 85 1.8 NW 13 20 7 11 1011.8 1011.3 0.0
01/08:30pm 25.5 28.1 22.6 84 2.0 NNW 13 19 7 10 1011.4 1010.9 0.0
01/08:00pm 25.8 28.2 22.3 81 2.4 NNW 13 24 7 13 1011.3 1010.8 0.0
01/07:30pm 26.2 28.2 22.3 79 2.6 NNW 15 24 8 13 1011.0 1010.5 0.0
01/07:00pm 26.8 28.7 22.0 75 3.2 NNW 15 24 8 13 1010.7 1010.2 0.0
01/06:30pm 27.4 28.2 21.4 70 4.0 NNW 19 28 10 15 1010.2 1009.7 0.0
01/06:00pm 28.4 27.9 19.1 57 6.0 NNW 20 30 11 16 1009.9 1009.4 0.0
01/05:30pm 31.5 30.2 13.7 33 10.8 NW 13 20 7 11 1009.4 1008.9 0.0
01/05:00pm 33.3 30.3 10.6 25 13.2 NW 17 22 9 12 1009.0 1008.5 0.0
01/04:30pm 34.5 30.9 8.3 20 14.8 NW 17 24 9 13 1008.9 1008.4 0.0
01/04:00pm 35.0 31.5 8.7 20 15.0 NNW 17 22 9 12 1008.7 1008.2 0.0
01/03:30pm 35.2 31.4 8.9 20 15.0 NNW 19 24 10 13 1008.7 1008.2 0.0
01/03:00pm 35.6 32.6 10.6 22 14.7 NW 17 26 9 14 1008.6 1008.0 0.0
01/02:30pm 35.3 31.8 11.0 23 14.3 NW 20 28 11 15 1008.5 1007.9 0.0
01/02:00pm 35.7 32.7 12.6 25 14.0 NW 20 32 11 17 1008.8 1008.3 0.0
01/01:30pm 36.0 34.8 14.1 27 13.5 NNW 13 20 7 11 1009.4 1008.9 0.0
01/01:00pm 35.6 33.8 15.9 31 12.5 NW 20 30 11 16 1009.7 1009.2 0.0
01/12:30pm 35.3 33.6 14.6 29 12.9 NW 17 26 9 14 1010.1 1009.6 0.0
01/12:00pm 35.1 34.2 16.9 34 11.7 NNW 17 26 9 14 1010.7 1010.2 0.0
01/11:30am 34.1 33.4 18.6 40 10.1 NW 20 26 11 14 1011.2 1010.7 0.0
01/11:00am 33.9 32.6 17.2 37 10.7 N 20 24 11 13 1011.7 1011.2 0.0
01/10:30am 32.9 32.3 16.7 38 10.3 N 15 26 8 14 1012.3 1011.8 0.0
01/10:00am 33.0 32.8 16.8 38 10.3 N 13 20 7 11 1012.6 1012.1 0.0
01/09:30am 30.9 30.7 18.6 48 8.0 N 17 24 9 13 1012.8 1012.3 0.0
01/09:00am 30.1 30.4 18.8 50 7.3 NNW 15 20 8 11 1012.7 1012.2 0.0
01/08:30am 29.1 30.6 20.5 59 5.7 N 13 22 7 12 1013.0 1012.5 0.0
01/08:00am 27.9 29.5 20.7 65 4.8 N 13 19 7 10 1013.3 1012.8 0.0
01/07:30am 26.2 27.3 21.2 74 3.3 N 17 26 9 14 1012.6 1012.2 0.0
01/07:00am 24.9 27.1 21.8 83 2.1 N 13 20 7 11 1012.1 1011.7 0.0
01/06:30am 23.5 26.1 21.9 91 1.1 N 11 17 6 9 1011.9 1011.5 0.0
01/06:00am 22.4 25.2 21.6 95 0.5 N 9 15 5 8 1011.7 1011.3 0.0
01/05:30am 22.2 24.5 21.4 95 0.5 N 11 15 6 8 1011.5 1011.1 0.0
01/05:00am 22.3 24.7 21.5 95 0.5 N 11 17 6 9 1011.3 1010.9 0.0
01/04:30am 22.4 24.8 21.6 95 0.5 N 11 17 6 9 1011.1 1010.7 0.0
01/04:00am 22.4 25.0 21.9 97 0.3 NE 11 15 6 8 1010.9 1010.5 0.0
01/03:30am 22.2 24.8 21.9 98 0.2 NNE 11 15 6 8 1010.5 1010.1 0.0
01/03:00am 22.3 25.0 22.1 99 0.1 N 11 17 6 9 1010.2 1009.8 0.0
01/02:30am 22.2 24.8 22.0 99 0.1 N 11 15 6 8 1010.0 1009.6 0.0
01/02:00am 22.0 24.5 21.7 98 0.2 N 11 13 6 7 1010.1 1009.7 0.0
01/01:30am 22.0 24.7 21.3 96 0.5 N 9 11 5 6 1010.1 1009.7 0.0
01/01:00am 22.0 24.4 20.8 93 0.8 N 9 11 5 6 1010.3 1009.9 0.0
01/12:30am 22.2 24.2 20.7 91 1.0 N 11 13 6 7 1010.4 1010.0 0.0
01/12:00am 22.3 24.2 19.8 86 1.6 N 9 13 5 7 1010.7 1010.3 0.0
 
Date/Time
WST
Temp
°C
App
Temp
°C
Dew
Point
Rel
Hum
%
Delta-T
°C
Wind Press
QNH
hPa
Press
MSL
hPa
Rain
since 9 am
mm
Dir
 
Spd
km/h
Gust
km/h
Spd
kts
Gust
kts
30/11:30pm 23.0 24.5 19.8 82 2.1 N 11 13 6 7 1011.0 1010.6 0.0
30/11:00pm 23.4 25.4 20.0 81 2.2 N 9 13 5 7 1011.0 1010.6 0.0
30/10:30pm 22.9 24.7 19.5 81 2.2 NNE 9 11 5 6 1011.1 1010.7 0.0
30/10:00pm 23.9 25.7 19.6 77 2.8 N 9 13 5 7 1011.1 1010.7 0.0
30/09:30pm 24.6 26.3 19.4 73 3.3 NNW 9 15 5 8 1011.2 1010.8 0.0
30/09:00pm 25.3 26.6 19.4 70 3.8 NNW 11 17 6 9 1011.0 1010.6 0.0
30/08:30pm 25.8 26.5 19.7 69 4.0 NW 15 22 8 12 1011.0 1010.6 0.0
30/08:00pm 26.2 26.8 20.3 70 3.9 NW 17 22 9 12 1010.9 1010.5 0.0
30/07:30pm 26.4 27.9 20.5 70 3.9 NNW 13 20 7 11 1010.4 1010.0 0.0
30/07:00pm 27.1 27.9 20.7 68 4.2 N 17 30 9 16 1010.0 1009.6 0.0
30/06:30pm 27.7 28.6 20.8 66 4.6 NNW 17 24 9 13 1009.6 1009.2 0.0
30/06:00pm 28.6 29.4 19.8 59 5.8 NNW 15 20 8 11 1009.2 1008.7 0.0
30/05:30pm 29.9 30.1 19.3 53 6.9 NNW 17 26 9 14 1008.5 1008.0 0.0
30/05:00pm 32.0 30.5 16.3 39 9.9 NNW 19 30 10 16 1008.0 1007.5 0.0
30/04:30pm 33.4 31.3 13.5 30 12.1 NW 17 26 9 14 1007.4 1006.9 0.0
30/04:00pm 34.8 31.9 13.0 26 13.2 NW 20 30 11 16 1007.1 1006.6 0.0
30/03:30pm 36.2 33.0 13.0 24 14.1 NNW 22 32 12 17 1006.9 1006.4 0.0
30/03:00pm 37.2 34.0 13.2 23 14.8 NNW 22 28 12 15 1006.7 1006.2 0.0
30/02:30pm 39.2 36.6 12.1 20 16.5 NW 17 22 9 12 1006.7 1006.2 0.0
30/02:00pm 39.9 34.6 -0.5 8 20.5 E 17 24 9 13 1006.7 1006.2 0.0
30/01:30pm 40.2 35.6 1.3 9 20.3 NNE 15 24 8 13 1007.0 1006.5 0.0
30/01:00pm 40.6 36.3 3.1 10 20.2 S 15 22 8 12 1007.3 1006.8 0.0
30/12:30pm 39.3 36.2 3.4 11 19.2 ENE 9 15 5 8 1007.8 1007.3 0.0
30/12:00pm 38.6 34.8 4.1 12 18.6 E 13 20 7 11 1008.5 1008.0 0.0
30/11:30am 37.6 34.1 5.6 14 17.6 ENE 13 20 7 11 1009.1 1008.6 0.0
30/11:00am 36.3 32.4 5.5 15 16.8 E 15 22 8 12 1009.8 1009.4 0.0
30/10:30am 35.7 33.1 7.7 18 15.7 E 11 19 6 10 1010.2 1009.8 0.0
30/10:00am 35.2 33.3 8.9 20 15.0 ENE 9 19 5 10 1010.8 1010.4 0.0
30/09:30am 33.2 30.6 9.3 23 13.6 SSE 13 19 7 10 1011.1 1010.7 0.0
30/09:00am 30.5 29.2 9.9 28 11.7 SW 7 11 4 6 1011.3 1010.9 0.0
30/08:30am 29.8 28.6 10.4 30 11.1 S 7 11 4 6 1011.5 1011.1 0.0
30/08:00am 28.0 28.2 12.0 37 9.3 WSW 2 7 1 4 1011.5 1011.1 0.0
30/07:30am 26.1 25.9 13.6 46 7.4 W 7 11 4 6 1011.5 1011.1 0.0
30/07:00am 24.1 24.4 14.5 55 5.7 NW 6 9 3 5 1011.2 1010.8 0.0
30/06:30am 20.9 20.8 13.8 64 4.1 NNE 7 11 4 6 1011.0 1010.6 0.0
30/06:00am 17.0 17.8 12.5 75 2.5 CALM 0 0 0 0 1010.5 1010.1 0.0
30/05:30am 15.8 16.2 11.2 74 2.5 CALM 0 0 0 0 1010.3 1009.9 0.0
30/05:00am 15.9 15.4 10.9 72 2.7 SE 4 7 2 4 1010.2 1009.8 0.0
30/04:30am 17.2 16.2 12.3 73 2.7 E 9 11 5 6 1010.0 1009.6 0.0
30/04:00am 17.3 17.5 11.8 70 3.0 ENE 2 7 1 4 1009.7 1009.3 0.0
30/03:30am 18.0 18.2 11.8 67 3.4 SW 2 7 1 4 1009.3 1008.8 0.0
30/03:00am 19.6 18.7 11.4 59 4.5 WSW 7 7 4 4 1009.1 1008.6 0.0
30/02:30am 21.2 20.1 12.1 56 5.1 SW 9 11 5 6 1009.1 1008.6 0.0
30/02:00am 21.5 19.5 11.5 53 5.6 SW 13 13 7 7 1009.0 1008.5 0.0
30/01:30am 22.5 20.8 11.3 49 6.3 SW 11 15 6 8 1009.2 1008.7 0.0
30/01:00am 23.7 21.2 11.1 45 7.1 WSW 15 17 8 9 1009.2 1008.7 0.0
30/12:30am 23.7 21.7 11.4 46 6.9 WSW 13 15 7 8 1009.4 1008.9 0.0
30/12:00am 24.9 23.7 12.8 47 7.0 W 11 13 6 7 1009.5 1009.1 0.0
 
Date/Time
WST
Temp
°C
App
Temp
°C
Dew
Point
Rel
Hum
%
Delta-T
°C
Wind Press
QNH
hPa
Press
MSL
hPa
Rain
since 9 am
mm
Dir
 
Spd
km/h
Gust
km/h
Spd
kts
Gust
kts
29/11:30pm 25.2 24.4 15.2 54 6.0 W 13 15 7 8 1009.8 1009.4 0.0
29/11:00pm 24.1 25.1 17.8 68 4.0 W 9 11 5 6 1010.1 1009.7 0.0
29/10:30pm 23.3 25.1 18.8 76 2.9 W 7 9 4 5 1010.2 1009.8 0.0
29/10:00pm 23.3 25.5 17.5 70 3.6 NW 2 9 1 5 1010.4 1010.0 0.0
29/09:30pm 24.1 25.5 17.8 68 3.9 NW 7 9 4 5 1010.5 1010.1 0.0
29/09:00pm 25.7 27.1 17.9 62 4.9 NW 7 9 4 5 1010.4 1010.0 0.0
29/08:30pm 26.5 27.5 17.8 58 5.5 N 9 13 5 7 1010.1 1009.7 0.0
29/08:00pm 26.8 27.2 17.3 56 6.0 N 11 17 6 9 1010.1 1009.7 0.0
29/07:30pm 27.6 27.0 15.6 48 7.4 NW 13 20 7 11 1009.7 1009.3 0.0
29/07:00pm 28.0 27.4 13.5 41 8.6 NW 9 13 5 7 1009.2 1008.7 0.0
29/06:30pm 29.7 28.0 13.5 37 9.7 NNW 15 20 8 11 1008.8 1008.3 0.0
29/06:00pm 30.7 29.5 13.9 36 10.2 NW 13 20 7 11 1008.3 1007.8 0.0
29/05:30pm 34.6 31.2 7.6 19 15.1 NW 15 19 8 10 1007.6 1007.1 0.0
29/05:00pm 36.6 33.0 6.7 16 16.6 NW 15 20 8 11 1007.1 1006.6 0.0
29/04:30pm 37.8 33.4 6.7 15 17.4 NNW 19 22 10 12 1006.8 1006.3 0.0

Other Formats:

Comma delimited format used in spreadsheet applications
http://www.bom.gov.au/fwo/IDW60801/IDW60801.94204.axf

JavaScript Object Notation format (JSON) in row-major order
http://www.bom.gov.au/fwo/IDW60801/IDW60801.94204.json